createdAt,value
2018-10-07T00:01:47.404Z,4.20
2018-10-07T00:04:15.576Z,3.93
2018-10-07T00:06:43.496Z,4.30
2018-10-07T00:09:11.476Z,4.47
2018-10-07T00:11:39.451Z,4.37
2018-10-07T00:14:07.528Z,4.23
2018-10-07T00:16:35.600Z,4.20
2018-10-07T00:19:03.547Z,4.57
2018-10-07T00:21:31.515Z,4.20
2018-10-07T00:23:59.763Z,4.70
2018-10-07T00:26:27.954Z,4.40
2018-10-07T00:28:56.119Z,4.63
2018-10-07T00:31:24.195Z,5.03
2018-10-07T00:33:52.274Z,5.10
2018-10-07T00:36:20.229Z,5.13
2018-10-07T00:38:48.158Z,4.83
2018-10-07T00:41:16.191Z,4.80
2018-10-07T00:43:44.148Z,4.10
2018-10-07T00:46:12.223Z,4.43
2018-10-07T00:48:40.180Z,5.80
2018-10-07T00:51:08.160Z,4.30
2018-10-07T00:53:36.095Z,4.40
2018-10-07T00:56:04.095Z,4.50
2018-10-07T00:58:32.176Z,4.70
2018-10-07T01:01:00.129Z,4.33
2018-10-07T01:03:28.019Z,4.37
2018-10-07T01:05:56.039Z,4.43
2018-10-07T01:08:24.006Z,4.30
2018-10-07T01:10:51.925Z,4.70
2018-10-07T01:13:19.944Z,5.70
2018-10-07T01:15:47.933Z,5.53
2018-10-07T01:18:16.007Z,5.17
2018-10-07T01:20:44.077Z,5.67
2018-10-07T01:23:12.068Z,5.60
2018-10-07T01:25:39.972Z,5.30
2018-10-07T01:28:08.062Z,4.57
2018-10-07T01:30:36.055Z,4.00
2018-10-07T01:33:04.071Z,4.80
2018-10-07T01:35:32.020Z,5.60
2018-10-07T01:37:59.996Z,5.33
2018-10-07T01:40:27.963Z,5.20
2018-10-07T01:42:55.910Z,4.63
2018-10-07T01:45:23.804Z,4.90
2018-10-07T01:47:51.724Z,5.17
2018-10-07T01:50:19.637Z,4.93
2018-10-07T01:52:47.591Z,4.20
2018-10-07T01:55:15.555Z,5.43
2018-10-07T01:57:43.536Z,5.20
2018-10-07T02:00:11.532Z,4.93
2018-10-07T02:02:39.468Z,6.00
2018-10-07T02:05:07.471Z,5.60
2018-10-07T02:07:37.109Z,6.53
2018-10-07T02:10:05.480Z,7.27
2018-10-07T02:12:33.420Z,6.50
2018-10-07T02:15:01.386Z,4.90
2018-10-07T02:17:29.432Z,4.97
2018-10-07T02:19:57.367Z,5.27
2018-10-07T02:22:25.367Z,4.80
2018-10-07T02:24:53.331Z,4.70
2018-10-07T02:27:21.307Z,4.97
2018-10-07T02:29:49.252Z,4.77
2018-10-07T02:32:17.247Z,5.50
2018-10-07T02:34:45.186Z,4.60
2018-10-07T02:37:13.248Z,5.03
2018-10-07T02:39:41.278Z,5.33
2018-10-07T02:42:09.376Z,5.23
2018-10-07T02:44:37.312Z,4.97
2018-10-07T02:47:07.176Z,5.03
2018-10-07T02:49:35.160Z,5.33
2018-10-07T02:52:03.168Z,5.53
2018-10-07T02:54:31.223Z,5.10
2018-10-07T02:56:59.194Z,4.87
2018-10-07T02:59:27.176Z,5.10
2018-10-07T03:01:55.211Z,5.30
2018-10-07T03:04:23.291Z,5.27
2018-10-07T03:06:51.218Z,5.57
2018-10-07T03:09:19.146Z,4.70
2018-10-07T03:11:47.204Z,5.57
2018-10-07T03:14:15.193Z,4.90
2018-10-07T03:16:43.361Z,5.77
2018-10-07T03:19:11.341Z,4.60
2018-10-07T03:21:39.347Z,4.10
2018-10-07T03:24:07.475Z,4.70
2018-10-07T03:26:35.566Z,4.37
2018-10-07T03:29:03.527Z,4.63
2018-10-07T03:31:31.558Z,4.90
2018-10-07T03:33:59.447Z,5.90
2018-10-07T03:36:27.484Z,5.40
2018-10-07T03:38:55.399Z,6.13
2018-10-07T03:41:23.357Z,6.37
2018-10-07T03:43:51.322Z,5.37
2018-10-07T03:46:19.258Z,5.83
2018-10-07T03:48:47.328Z,7.47
2018-10-07T03:51:17.745Z,6.53
2018-10-07T03:53:45.720Z,6.30
2018-10-07T03:56:13.627Z,7.67
2018-10-07T03:58:41.595Z,5.30
2018-10-07T04:01:09.557Z,4.97
2018-10-07T04:03:37.426Z,5.67
2018-10-07T04:06:05.513Z,5.43
2018-10-07T04:08:33.451Z,4.70
2018-10-07T04:11:01.441Z,5.00
2018-10-07T04:13:29.495Z,5.40
2018-10-07T04:15:57.387Z,5.17
2018-10-07T04:18:27.600Z,6.17
2018-10-07T04:20:55.732Z,4.87
2018-10-07T04:23:23.833Z,5.20
2018-10-07T04:25:51.829Z,5.20
2018-10-07T04:28:19.771Z,6.13
2018-10-07T04:30:47.707Z,7.27
2018-10-07T04:33:15.736Z,8.00
2018-10-07T04:35:43.782Z,7.13
2018-10-07T04:38:11.884Z,8.33
2018-10-07T04:40:39.948Z,7.53
2018-10-07T04:43:07.914Z,7.87
2018-10-07T04:45:35.826Z,8.43
2018-10-07T04:50:50.215Z,9.60
2018-10-07T04:53:18.107Z,6.53
2018-10-07T04:55:46.043Z,6.97
2018-10-07T04:58:14.152Z,7.13
2018-10-07T05:00:42.048Z,7.40
2018-10-07T05:03:09.945Z,7.67
2018-10-07T05:05:37.880Z,8.40
2018-10-07T05:08:06.186Z,7.80
2018-10-07T05:10:43.845Z,7.40
2018-10-07T05:13:12.043Z,7.50
2018-10-07T05:15:40.227Z,7.50
2018-10-07T05:18:08.855Z,6.80
2018-10-07T05:20:36.801Z,6.00
2018-10-07T05:23:04.675Z,6.20
2018-10-07T05:25:32.619Z,6.10
2018-10-07T05:28:00.522Z,5.47
2018-10-07T05:30:28.415Z,6.70
2018-10-07T05:35:42.447Z,6.30
2018-10-07T05:38:10.418Z,6.57
2018-10-07T05:40:38.383Z,7.00
2018-10-07T05:43:06.350Z,6.40
2018-10-07T05:45:34.222Z,6.00
2018-10-07T05:48:02.099Z,7.10
2018-10-07T05:50:29.972Z,5.63
2018-10-07T05:52:57.890Z,7.27
2018-10-07T05:55:25.783Z,7.70
2018-10-07T05:57:54.191Z,7.10
2018-10-07T06:00:22.105Z,7.57
2018-10-07T06:02:50.130Z,7.57
2018-10-07T06:05:18.051Z,7.93
2018-10-07T06:07:45.959Z,7.27
2018-10-07T06:10:13.890Z,7.30
2018-10-07T06:12:41.762Z,7.00
2018-10-07T06:15:31.601Z,7.80
2018-10-07T06:17:59.672Z,8.37
2018-10-07T06:20:30.306Z,11.00
2018-10-07T06:22:58.522Z,10.43
2018-10-07T06:25:26.711Z,10.90
2018-10-07T06:27:55.065Z,12.77
2018-10-07T06:30:22.983Z,12.37
2018-10-07T06:32:51.187Z,12.03
2018-10-07T06:35:19.078Z,12.83
2018-10-07T06:37:47.287Z,13.13
2018-10-07T06:40:15.159Z,12.23
2018-10-07T06:42:43.137Z,13.73
2018-10-07T06:45:11.103Z,13.77
2018-10-07T06:47:39.107Z,13.63
2018-10-07T06:50:07.338Z,12.50
2018-10-07T06:52:35.268Z,12.23
2018-10-07T06:55:03.167Z,12.87
2018-10-07T06:57:31.215Z,13.63
2018-10-07T06:59:59.515Z,12.07
2018-10-07T07:02:27.567Z,11.83
2018-10-07T07:04:55.658Z,13.37
2018-10-07T07:07:23.935Z,14.30
2018-10-07T07:09:51.915Z,15.20
2018-10-07T07:12:19.879Z,13.93
2018-10-07T07:14:48.650Z,15.40
2018-10-07T07:17:16.558Z,16.57
2018-10-07T07:19:44.543Z,15.93
2018-10-07T07:22:12.475Z,17.53
2018-10-07T07:24:40.449Z,17.47
2018-10-07T07:27:08.482Z,15.57
2018-10-07T07:29:36.369Z,17.13
2018-10-07T07:32:04.348Z,18.03
2018-10-07T07:34:32.223Z,18.13
2018-10-07T07:37:00.178Z,19.50
2018-10-07T07:39:28.151Z,18.03
2018-10-07T07:41:56.240Z,19.43
2018-10-07T07:44:24.311Z,18.50
2018-10-07T07:46:52.258Z,19.07
2018-10-07T07:49:20.246Z,18.83
2018-10-07T07:51:48.267Z,18.67
2018-10-07T07:54:16.179Z,20.17
2018-10-07T07:56:44.125Z,20.57
2018-10-07T07:59:12.199Z,20.87
2018-10-07T08:01:40.183Z,19.53
2018-10-07T08:04:08.128Z,19.17
2018-10-07T08:06:36.033Z,21.53
2018-10-07T08:09:05.584Z,21.77
2018-10-07T08:11:34.514Z,19.93
2018-10-07T08:14:02.466Z,20.73
2018-10-07T08:16:30.636Z,18.17
2018-10-07T08:18:58.614Z,17.63
2018-10-07T08:21:26.687Z,18.53
2018-10-07T08:23:54.681Z,19.07
2018-10-07T08:26:22.635Z,20.50
2018-10-07T08:28:50.600Z,19.93
2018-10-07T08:31:18.576Z,19.67
2018-10-07T08:33:46.539Z,20.00
2018-10-07T08:36:14.495Z,20.93
2018-10-07T08:38:42.550Z,19.80
2018-10-07T08:41:10.539Z,19.20
2018-10-07T08:43:38.486Z,19.10
2018-10-07T08:46:06.499Z,20.67
2018-10-07T08:48:41.099Z,32.63
2018-10-07T08:51:09.099Z,21.80
2018-10-07T08:53:37.123Z,22.03
2018-10-07T08:56:05.225Z,21.23
2018-10-07T08:58:33.195Z,22.30
2018-10-07T09:01:01.181Z,21.17
2018-10-07T09:03:29.234Z,22.30
2018-10-07T09:05:57.202Z,21.97
2018-10-07T09:08:25.384Z,21.50
2018-10-07T09:10:53.273Z,23.77
2018-10-07T09:13:21.216Z,22.47
2018-10-07T09:15:49.175Z,22.00
2018-10-07T09:18:17.207Z,23.47
2018-10-07T09:20:45.357Z,22.70
2018-10-07T09:23:13.386Z,21.97
2018-10-07T09:25:41.470Z,22.07
2018-10-07T09:28:09.436Z,22.23
2018-10-07T09:30:37.685Z,23.13
2018-10-07T09:33:05.690Z,21.83
2018-10-07T09:35:33.650Z,22.47
2018-10-07T09:38:01.583Z,22.33
2018-10-07T09:40:29.578Z,21.33
2018-10-07T09:42:57.555Z,22.37
2018-10-07T09:45:25.519Z,21.33
2018-10-07T09:47:53.564Z,21.40
2018-10-07T09:50:21.674Z,23.13
2018-10-07T09:52:50.059Z,22.70
2018-10-07T09:55:18.147Z,23.07
2018-10-07T09:57:46.083Z,23.97
2018-10-07T10:00:14.048Z,23.80
2018-10-07T10:02:41.987Z,23.97
2018-10-07T10:05:09.894Z,23.77
2018-10-07T10:07:37.828Z,24.00
2018-10-07T10:10:05.770Z,23.00
2018-10-07T10:12:33.680Z,23.30
2018-10-07T10:15:01.607Z,24.53
2018-10-07T10:17:29.650Z,23.10
2018-10-07T10:20:05.383Z,23.63
2018-10-07T10:22:38.996Z,24.03
2018-10-07T10:25:12.706Z,24.50
2018-10-07T10:27:42.303Z,24.63
2018-10-07T10:30:13.378Z,23.83
2018-10-07T10:32:46.315Z,23.97
2018-10-07T10:35:16.747Z,24.63
2018-10-07T10:37:50.354Z,22.80
2018-10-07T10:40:22.928Z,25.27
2018-10-07T10:42:52.240Z,24.03
2018-10-07T10:45:28.999Z,24.63
2018-10-07T10:47:59.325Z,25.43
2018-10-07T10:50:33.331Z,24.80
2018-10-07T10:53:20.949Z,23.30
2018-10-07T10:55:51.919Z,22.13
2018-10-07T10:58:28.582Z,21.13
2018-10-07T11:00:57.027Z,19.40
2018-10-07T11:03:30.485Z,19.60
2018-10-07T11:05:59.639Z,18.83
2018-10-07T11:08:40.435Z,18.80
2018-10-07T11:11:24.251Z,16.97
2018-10-07T11:13:58.391Z,16.90
2018-10-07T11:16:32.411Z,14.63
2018-10-07T11:19:05.689Z,13.27
2018-10-07T11:21:39.269Z,12.93
2018-10-07T11:27:25.818Z,9.90
2018-10-07T11:30:13.416Z,10.37
2018-10-07T11:32:44.499Z,8.87
2018-10-07T11:35:23.784Z,8.17
2018-10-07T11:37:53.053Z,8.50
2018-10-07T11:40:22.926Z,7.37
2018-10-07T11:42:54.555Z,7.57
2018-10-07T11:45:23.846Z,7.17
2018-10-07T11:47:58.180Z,7.07
2018-10-07T11:50:34.583Z,7.03
2018-10-07T11:53:06.525Z,5.60
2018-10-07T11:55:34.520Z,5.77
2018-10-07T11:58:02.502Z,4.87
2018-10-07T12:00:30.497Z,5.60
2018-10-07T12:02:58.621Z,5.40
2018-10-07T12:05:26.647Z,4.97
2018-10-07T12:07:54.558Z,4.57
2018-10-07T12:10:22.698Z,4.53
2018-10-07T12:12:50.564Z,5.23
2018-10-07T12:15:18.484Z,4.93
2018-10-07T12:17:46.439Z,4.57
2018-10-07T12:20:14.365Z,4.00
2018-10-07T12:22:42.301Z,4.33
2018-10-07T12:25:10.248Z,4.37
2018-10-07T12:27:38.941Z,3.73
2018-10-07T12:30:07.000Z,4.10
2018-10-07T12:32:35.025Z,4.10
2018-10-07T12:35:03.232Z,3.50
2018-10-07T12:37:31.172Z,2.90
2018-10-07T12:39:59.204Z,3.60
2018-10-07T12:42:27.164Z,3.40
2018-10-07T12:44:55.112Z,3.27
2018-10-07T12:47:23.108Z,3.03
2018-10-07T12:49:51.214Z,3.23
2018-10-07T12:52:19.130Z,3.60
2018-10-07T12:54:47.207Z,3.27
2018-10-07T12:57:15.279Z,2.93
2018-10-07T12:59:43.212Z,3.67
2018-10-07T13:02:11.157Z,3.30
2018-10-07T13:04:39.140Z,3.60
2018-10-07T13:07:07.323Z,3.73
2018-10-07T13:09:35.270Z,4.40
2018-10-07T13:12:03.199Z,4.23
2018-10-07T13:14:31.394Z,4.37
2018-10-07T13:16:59.401Z,4.50
2018-10-07T13:19:27.338Z,4.00
2018-10-07T13:21:55.366Z,4.13
2018-10-07T13:24:23.412Z,4.67
2018-10-07T13:26:51.422Z,4.07
2018-10-07T13:29:19.413Z,4.63
2018-10-07T13:31:47.353Z,4.03
2018-10-07T13:34:15.295Z,4.20
2018-10-07T13:36:49.683Z,4.53
2018-10-07T13:39:17.815Z,3.97
2018-10-07T13:41:45.791Z,4.77
2018-10-07T13:44:13.799Z,4.83
2018-10-07T13:46:41.806Z,4.60
2018-10-07T13:49:09.700Z,5.10
2018-10-07T13:51:40.365Z,5.97
2018-10-07T13:54:08.404Z,5.87
2018-10-07T13:56:36.408Z,5.53
2018-10-07T13:59:04.339Z,5.90
2018-10-07T14:01:32.357Z,6.70
2018-10-07T14:04:00.288Z,6.23
2018-10-07T14:06:28.233Z,5.93
2018-10-07T14:08:56.221Z,6.20
2018-10-07T14:11:24.165Z,5.40
2018-10-07T14:13:52.219Z,6.20
2018-10-07T14:16:20.196Z,6.97
2018-10-07T14:18:48.185Z,6.47
2018-10-07T14:21:16.111Z,6.07
2018-10-07T14:23:44.337Z,6.00
2018-10-07T14:26:12.287Z,6.27
2018-10-07T14:28:41.395Z,6.23
2018-10-07T14:31:09.515Z,6.30
2018-10-07T14:33:37.495Z,5.67
2018-10-07T14:36:05.516Z,5.47
2018-10-07T14:38:33.492Z,5.30
2018-10-07T14:41:01.376Z,5.20
2018-10-07T14:43:29.626Z,5.07
2018-10-07T14:45:57.658Z,4.90
2018-10-07T14:48:25.643Z,4.60
2018-10-07T14:50:53.606Z,4.57
2018-10-07T14:53:21.550Z,4.30
2018-10-07T14:55:49.541Z,3.63
2018-10-07T14:58:17.534Z,4.00
2018-10-07T15:00:45.503Z,3.77
2018-10-07T15:03:13.492Z,3.97
2018-10-07T15:05:41.428Z,4.20
2018-10-07T15:08:09.387Z,3.23
2018-10-07T15:10:37.369Z,3.27
2018-10-07T15:13:05.350Z,3.80
2018-10-07T15:15:33.341Z,3.67
2018-10-07T15:18:01.434Z,3.33
2018-10-07T15:20:29.561Z,3.40
2018-10-07T15:22:57.764Z,3.47
2018-10-07T15:25:25.785Z,2.87
2018-10-07T15:27:53.667Z,2.80
2018-10-07T15:30:21.599Z,2.60
2018-10-07T15:32:49.600Z,2.60
2018-10-07T15:35:17.484Z,2.33
2018-10-07T15:37:45.487Z,8.67
2018-10-07T15:40:13.469Z,13.70
2018-10-07T15:42:41.502Z,2.23
2018-10-07T15:45:09.560Z,2.13
2018-10-07T15:47:37.517Z,1.90
2018-10-07T15:50:05.526Z,1.67
2018-10-07T15:52:33.571Z,1.57
2018-10-07T15:55:01.552Z,1.70
2018-10-07T15:57:29.562Z,1.57
2018-10-07T15:59:57.539Z,1.77
2018-10-07T16:02:25.667Z,1.87
2018-10-07T16:04:53.576Z,1.80
2018-10-07T16:07:21.547Z,1.93
2018-10-07T16:09:49.596Z,1.90
2018-10-07T16:12:17.508Z,2.30
2018-10-07T16:14:45.515Z,1.60
2018-10-07T16:19:55.898Z,3.30
2018-10-07T16:22:23.800Z,2.33
2018-10-07T16:24:51.831Z,1.70
2018-10-07T16:27:19.848Z,1.63
2018-10-07T16:29:47.834Z,1.70
2018-10-07T16:32:15.827Z,1.77
2018-10-07T16:34:43.784Z,1.93
2018-10-07T16:37:11.760Z,1.70
2018-10-07T16:39:39.715Z,1.93
2018-10-07T16:42:07.877Z,1.70
2018-10-07T16:44:36.120Z,1.37
2018-10-07T16:47:04.090Z,1.43
2018-10-07T16:49:32.070Z,1.47
2018-10-07T16:51:59.972Z,1.93
2018-10-07T16:54:27.974Z,1.37
2018-10-07T16:56:55.875Z,1.00
2018-10-07T16:59:23.794Z,1.70
2018-10-07T17:01:51.689Z,1.40
2018-10-07T17:04:19.588Z,2.07
2018-10-07T17:06:47.521Z,1.23
2018-10-07T17:09:15.415Z,1.63
2018-10-07T17:11:43.325Z,2.03
2018-10-07T17:14:11.191Z,1.50
2018-10-07T17:16:39.106Z,1.90
2018-10-07T17:19:07.043Z,1.30
2018-10-07T17:21:34.940Z,1.37
2018-10-07T17:24:02.824Z,1.10
2018-10-07T17:26:30.725Z,1.80
2018-10-07T17:28:58.616Z,0.90
2018-10-07T17:31:26.590Z,0.93
2018-10-07T17:33:54.487Z,1.10
2018-10-07T17:36:22.439Z,1.10
2018-10-07T17:38:50.358Z,0.80
2018-10-07T17:41:18.424Z,4.37
2018-10-07T17:43:46.284Z,1.90
2018-10-07T17:46:14.225Z,0.90
2018-10-07T17:48:42.285Z,1.20
2018-10-07T17:51:10.383Z,0.90
2018-10-07T17:53:38.472Z,0.87
2018-10-07T17:56:06.520Z,1.60
2018-10-07T17:58:34.427Z,0.90
2018-10-07T18:01:02.329Z,0.73
2018-10-07T18:03:30.252Z,1.20
2018-10-07T18:05:58.143Z,1.30
2018-10-07T18:08:26.271Z,1.50
2018-10-07T18:10:54.161Z,1.10
2018-10-07T18:13:22.072Z,0.90
2018-10-07T18:15:49.972Z,1.40
2018-10-07T18:18:17.894Z,1.97
2018-10-07T18:20:45.848Z,2.00
2018-10-07T18:23:13.735Z,1.77
2018-10-07T18:25:41.612Z,2.23
2018-10-07T18:28:09.551Z,2.87
2018-10-07T18:30:37.451Z,2.80
2018-10-07T18:33:05.974Z,2.70
2018-10-07T18:35:33.851Z,2.90
2018-10-07T18:38:01.754Z,2.97
2018-10-07T18:40:29.732Z,3.27
2018-10-07T18:42:57.670Z,2.93
2018-10-07T18:45:25.565Z,3.97
2018-10-07T18:47:53.485Z,3.63
2018-10-07T18:50:21.456Z,3.77
2018-10-07T18:52:49.291Z,4.10
2018-10-07T18:55:17.196Z,3.90
2018-10-07T18:57:45.079Z,3.97
2018-10-07T19:00:13.022Z,4.60
2018-10-07T19:02:41.116Z,3.97
2018-10-07T19:05:08.910Z,4.53
2018-10-07T19:07:36.809Z,4.67
2018-10-07T19:10:05.239Z,4.63
2018-10-07T19:12:33.163Z,4.30
2018-10-07T19:15:01.083Z,4.30
2018-10-07T19:17:29.174Z,4.20
2018-10-07T19:19:57.040Z,4.40
2018-10-07T19:22:24.948Z,4.43
2018-10-07T19:24:52.902Z,4.23
2018-10-07T19:27:20.783Z,4.10
2018-10-07T19:29:48.852Z,4.13
2018-10-07T19:32:16.649Z,4.47
2018-10-07T19:34:44.580Z,4.70
2018-10-07T19:37:12.641Z,4.30
2018-10-07T19:39:40.386Z,4.47
2018-10-07T19:42:08.311Z,4.43
2018-10-07T19:44:36.294Z,4.83
2018-10-07T19:47:04.131Z,5.03
2018-10-07T19:49:32.035Z,4.87
2018-10-07T19:51:59.951Z,4.33
2018-10-07T19:54:27.898Z,4.40
2018-10-07T19:56:55.787Z,4.40
2018-10-07T19:59:23.680Z,5.00
2018-10-07T20:01:51.640Z,5.33
2018-10-07T20:04:20.015Z,5.67
2018-10-07T20:06:47.993Z,4.80
2018-10-07T20:09:15.887Z,4.33
2018-10-07T20:11:43.764Z,5.03
2018-10-07T20:14:11.647Z,5.30
2018-10-07T20:16:39.557Z,4.70
2018-10-07T20:19:13.910Z,4.30
2018-10-07T20:21:41.793Z,4.27
2018-10-07T20:24:09.671Z,4.40
2018-10-07T20:26:37.546Z,4.43
2018-10-07T20:29:05.632Z,4.40
2018-10-07T20:31:33.654Z,4.80
2018-10-07T20:34:01.630Z,4.17
2018-10-07T20:36:29.613Z,4.27
2018-10-07T20:38:57.531Z,4.13
2018-10-07T20:41:25.428Z,4.33
2018-10-07T20:43:53.337Z,4.37
2018-10-07T20:46:21.242Z,4.27
2018-10-07T20:48:49.132Z,4.67
2018-10-07T20:51:18.680Z,4.40
2018-10-07T20:53:46.639Z,4.20
2018-10-07T20:56:14.529Z,4.80
2018-10-07T20:58:42.467Z,4.47
2018-10-07T21:01:10.371Z,3.87
2018-10-07T21:03:38.284Z,4.53
2018-10-07T21:06:06.204Z,4.70
2018-10-07T21:08:34.085Z,4.30
2018-10-07T21:11:02.022Z,4.87
2018-10-07T21:13:36.615Z,4.60
2018-10-07T21:16:04.518Z,4.43
2018-10-07T21:18:32.674Z,5.33
2018-10-07T21:21:00.585Z,4.73
2018-10-07T21:23:28.534Z,4.53
2018-10-07T21:25:56.440Z,4.43
2018-10-07T21:28:24.358Z,4.80
2018-10-07T21:30:52.278Z,4.50
2018-10-07T21:33:20.188Z,4.73
2018-10-07T21:35:48.095Z,4.30
2018-10-07T21:38:16.017Z,4.90
2018-10-07T21:40:44.297Z,5.20
2018-10-07T21:43:12.191Z,4.80
2018-10-07T21:45:40.532Z,4.70
2018-10-07T21:48:08.399Z,4.60
2018-10-07T21:50:36.727Z,4.70
2018-10-07T21:53:04.704Z,5.10
2018-10-07T21:55:32.596Z,5.07
2018-10-07T21:58:00.486Z,4.90
2018-10-07T22:00:28.470Z,4.40
2018-10-07T22:02:56.357Z,4.70
2018-10-07T22:05:24.261Z,5.50
2018-10-07T22:07:52.476Z,5.10
2018-10-07T22:10:20.375Z,5.40
2018-10-07T22:12:48.258Z,5.13
2018-10-07T22:15:16.219Z,4.97
2018-10-07T22:17:44.105Z,5.37
2018-10-07T22:20:12.010Z,4.67
2018-10-07T22:22:39.872Z,5.33
2018-10-07T22:25:07.783Z,5.70
2018-10-07T22:27:35.690Z,5.00
2018-10-07T22:30:03.597Z,5.70
2018-10-07T22:32:31.476Z,5.27
2018-10-07T22:34:59.359Z,5.27
2018-10-07T22:37:27.244Z,5.40
2018-10-07T22:39:55.116Z,5.50
2018-10-07T22:42:23.083Z,5.20
2018-10-07T22:44:50.948Z,5.77
2018-10-07T22:47:18.855Z,6.03
2018-10-07T22:49:46.732Z,6.30
2018-10-07T22:52:14.624Z,5.10
2018-10-07T22:54:42.516Z,5.53
2018-10-07T22:57:10.374Z,5.50
2018-10-07T22:59:38.250Z,5.13
2018-10-07T23:02:06.380Z,5.60
2018-10-07T23:04:34.242Z,6.00
2018-10-07T23:07:02.133Z,5.97
2018-10-07T23:09:30.019Z,5.53
2018-10-07T23:11:57.907Z,5.60
2018-10-07T23:14:25.853Z,5.10
2018-10-07T23:16:53.731Z,4.90
2018-10-07T23:19:21.633Z,5.20
2018-10-07T23:21:49.575Z,5.37
2018-10-07T23:24:17.472Z,5.20
2018-10-07T23:26:45.340Z,5.70
2018-10-07T23:29:13.230Z,5.60
2018-10-07T23:31:41.102Z,5.73
2018-10-07T23:34:09.044Z,5.57
2018-10-07T23:36:36.975Z,6.47
2018-10-07T23:39:06.500Z,5.13
2018-10-07T23:41:34.388Z,6.03
2018-10-07T23:44:02.278Z,5.73
2018-10-07T23:46:30.221Z,6.07
2018-10-07T23:48:58.087Z,5.83
2018-10-07T23:51:27.603Z,5.93
2018-10-07T23:53:55.606Z,5.63
2018-10-07T23:56:23.472Z,5.60
2018-10-07T23:58:51.385Z,5.33
